sensor_id;sensor_type;location;lat;lon;timestamp;pressure;altitude;pressure_sealevel;temperature;humidity
36242;BME280;22283;42.748;12.732;2022-07-23T00:01:24;98190.31;;;27.61;41.19
36242;BME280;22283;42.748;12.732;2022-07-23T00:06:25;98182.06;;;27.42;41.46
36242;BME280;22283;42.748;12.732;2022-07-23T00:11:26;98170.00;;;27.32;41.73
36242;BME280;22283;42.748;12.732;2022-07-23T00:16:27;98174.25;;;27.21;41.98
36242;BME280;22283;42.748;12.732;2022-07-23T00:21:27;98176.38;;;27.06;42.36
36242;BME280;22283;42.748;12.732;2022-07-23T00:26:28;98177.25;;;27.00;42.43
36242;BME280;22283;42.748;12.732;2022-07-23T00:31:29;98176.06;;;26.89;42.69
36242;BME280;22283;42.748;12.732;2022-07-23T00:36:30;98173.97;;;26.84;42.86
36242;BME280;22283;42.748;12.732;2022-07-23T00:41:34;98174.03;;;26.71;43.29
36242;BME280;22283;42.748;12.732;2022-07-23T00:46:34;98168.59;;;26.64;43.43
36242;BME280;22283;42.748;12.732;2022-07-23T00:51:35;98163.00;;;26.66;43.55
36242;BME280;22283;42.748;12.732;2022-07-23T00:56:37;98167.19;;;26.62;43.61
36242;BME280;22283;42.748;12.732;2022-07-23T01:01:39;98169.06;;;26.61;43.56
36242;BME280;22283;42.748;12.732;2022-07-23T01:06:41;98167.41;;;26.54;43.63
36242;BME280;22283;42.748;12.732;2022-07-23T01:11:43;98162.81;;;26.47;43.72
36242;BME280;22283;42.748;12.732;2022-07-23T01:16:46;98159.50;;;26.45;43.82
36242;BME280;22283;42.748;12.732;2022-07-23T01:21:50;98158.25;;;26.41;43.68
36242;BME280;22283;42.748;12.732;2022-07-23T01:26:51;98153.84;;;26.40;43.63
36242;BME280;22283;42.748;12.732;2022-07-23T01:31:52;98156.19;;;26.30;44.03
36242;BME280;22283;42.748;12.732;2022-07-23T01:36:54;98151.63;;;26.17;44.35
36242;BME280;22283;42.748;12.732;2022-07-23T01:41:54;98151.63;;;26.17;44.39
36242;BME280;22283;42.748;12.732;2022-07-23T01:46:56;98147.84;;;26.05;44.87
36242;BME280;22283;42.748;12.732;2022-07-23T01:51:57;98145.81;;;25.94;44.75
36242;BME280;22283;42.748;12.732;2022-07-23T01:57:07;98157.47;;;25.81;45.18
36242;BME280;22283;42.748;12.732;2022-07-23T02:02:08;98145.56;;;25.69;45.83
36242;BME280;22283;42.748;12.732;2022-07-23T02:07:09;98150.78;;;25.64;45.81
36242;BME280;22283;42.748;12.732;2022-07-23T02:12:10;98156.59;;;25.61;45.92
36242;BME280;22283;42.748;12.732;2022-07-23T02:17:10;98151.59;;;25.64;45.78
36242;BME280;22283;42.748;12.732;2022-07-23T02:22:11;98163.69;;;25.68;45.66
36242;BME280;22283;42.748;12.732;2022-07-23T02:27:13;98153.28;;;25.59;46.28
36242;BME280;22283;42.748;12.732;2022-07-23T02:32:14;98139.09;;;25.43;46.60
36242;BME280;22283;42.748;12.732;2022-07-23T02:37:15;98142.41;;;25.45;46.26
36242;BME280;22283;42.748;12.732;2022-07-23T02:42:16;98143.06;;;25.47;46.14
36242;BME280;22283;42.748;12.732;2022-07-23T02:47:17;98157.81;;;25.32;46.60
36242;BME280;22283;42.748;12.732;2022-07-23T02:52:19;98149.03;;;25.16;47.32
36242;BME280;22283;42.748;12.732;2022-07-23T02:57:21;98160.03;;;25.08;47.38
36242;BME280;22283;42.748;12.732;2022-07-23T03:02:22;98155.22;;;25.03;47.34
36242;BME280;22283;42.748;12.732;2022-07-23T03:07:24;98155.22;;;25.03;47.19
36242;BME280;22283;42.748;12.732;2022-07-23T03:12:26;98158.53;;;24.92;47.69
36242;BME280;22283;42.748;12.732;2022-07-23T03:17:26;98161.00;;;24.87;47.82
36242;BME280;22283;42.748;12.732;2022-07-23T03:22:28;98162.03;;;24.80;48.27
36242;BME280;22283;42.748;12.732;2022-07-23T03:27:30;98164.03;;;24.64;48.06
36242;BME280;22283;42.748;12.732;2022-07-23T03:32:31;98161.78;;;24.74;48.01
36242;BME280;22283;42.748;12.732;2022-07-23T03:37:32;98165.09;;;24.70;48.21
36242;BME280;22283;42.748;12.732;2022-07-23T03:42:34;98170.97;;;24.80;49.60
36242;BME280;22283;42.748;12.732;2022-07-23T03:47:36;98170.84;;;25.01;48.74
36242;BME280;22283;42.748;12.732;2022-07-23T03:52:37;98175.22;;;25.02;48.45
36242;BME280;22283;42.748;12.732;2022-07-23T03:57:39;98170.59;;;24.90;48.67
36242;BME280;22283;42.748;12.732;2022-07-23T04:02:40;98176.00;;;24.90;48.05
36242;BME280;22283;42.748;12.732;2022-07-23T04:07:42;98182.06;;;24.98;47.92
36242;BME280;22283;42.748;12.732;2022-07-23T04:12:43;98185.63;;;25.06;47.85
36242;BME280;22283;42.748;12.732;2022-07-23T04:17:44;98192.66;;;24.93;47.67
36242;BME280;22283;42.748;12.732;2022-07-23T04:22:47;98191.63;;;24.94;48.29
36242;BME280;22283;42.748;12.732;2022-07-23T04:27:48;98203.50;;;24.93;48.33
36242;BME280;22283;42.748;12.732;2022-07-23T04:32:49;98199.78;;;25.01;48.31
36242;BME280;22283;42.748;12.732;2022-07-23T04:37:57;98200.31;;;25.31;47.81
36242;BME280;22283;42.748;12.732;2022-07-23T04:42:58;98215.78;;;25.57;46.81
36242;BME280;22283;42.748;12.732;2022-07-23T04:47:59;98224.59;;;25.92;46.53
36242;BME280;22283;42.748;12.732;2022-07-23T04:53:03;98226.06;;;26.41;45.64
36242;BME280;22283;42.748;12.732;2022-07-23T04:58:04;98222.88;;;26.78;44.10
36242;BME280;22283;42.748;12.732;2022-07-23T05:03:05;98217.31;;;27.11;43.36
36242;BME280;22283;42.748;12.732;2022-07-23T05:08:06;98226.88;;;27.27;42.93
36242;BME280;22283;42.748;12.732;2022-07-23T05:13:07;98230.81;;;27.69;41.93
36242;BME280;22283;42.748;12.732;2022-07-23T05:18:09;98222.97;;;28.11;41.95
36242;BME280;22283;42.748;12.732;2022-07-23T05:23:10;98219.63;;;28.59;41.04
36242;BME280;22283;42.748;12.732;2022-07-23T05:28:12;98228.25;;;28.92;41.06
36242;BME280;22283;42.748;12.732;2022-07-23T05:33:13;98226.59;;;29.10;40.44
36242;BME280;22283;42.748;12.732;2022-07-23T05:38:15;98229.38;;;29.52;39.51
36242;BME280;22283;42.748;12.732;2022-07-23T05:43:16;98227.06;;;30.09;38.18
36242;BME280;22283;42.748;12.732;2022-07-23T05:48:17;98230.19;;;30.48;37.69
36242;BME280;22283;42.748;12.732;2022-07-23T05:53:34;98223.78;;;30.66;37.35
36242;BME280;22283;42.748;12.732;2022-07-23T05:58:58;98236.63;;;30.53;37.43
36242;BME280;22283;42.748;12.732;2022-07-23T06:04:00;98226.28;;;30.44;37.46
36242;BME280;22283;42.748;12.732;2022-07-23T06:09:07;98235.66;;;30.48;37.18
36242;BME280;22283;42.748;12.732;2022-07-23T06:14:11;98239.72;;;30.45;36.60
36242;BME280;22283;42.748;12.732;2022-07-23T06:19:23;98246.69;;;30.53;37.07
36242;BME280;22283;42.748;12.732;2022-07-23T06:24:25;98235.13;;;31.09;36.51
36242;BME280;22283;42.748;12.732;2022-07-23T06:29:27;98238.63;;;31.62;36.00
36242;BME280;22283;42.748;12.732;2022-07-23T06:34:28;98245.13;;;32.01;35.29
36242;BME280;22283;42.748;12.732;2022-07-23T06:39:30;98232.25;;;32.19;34.42
36242;BME280;22283;42.748;12.732;2022-07-23T06:44:32;98239.00;;;31.25;35.77
36242;BME280;22283;42.748;12.732;2022-07-23T06:49:34;98239.56;;;30.99;36.50
36242;BME280;22283;42.748;12.732;2022-07-23T06:54:35;98245.28;;;31.38;36.17
36242;BME280;22283;42.748;12.732;2022-07-23T06:59:45;98243.09;;;31.51;35.31
36242;BME280;22283;42.748;12.732;2022-07-23T07:04:46;98247.22;;;31.82;35.18
36242;BME280;22283;42.748;12.732;2022-07-23T07:09:50;98238.31;;;31.75;34.71
36242;BME280;22283;42.748;12.732;2022-07-23T07:14:54;98234.41;;;32.50;33.69
36242;BME280;22283;42.748;12.732;2022-07-23T07:19:55;98234.09;;;32.86;33.36
36242;BME280;22283;42.748;12.732;2022-07-23T07:24:59;98227.19;;;32.61;33.94
36242;BME280;22283;42.748;12.732;2022-07-23T07:30:04;98222.50;;;32.40;34.38
36242;BME280;22283;42.748;12.732;2022-07-23T07:35:10;98215.94;;;32.41;34.18
36242;BME280;22283;42.748;12.732;2022-07-23T07:40:13;98225.03;;;32.63;33.93
36242;BME280;22283;42.748;12.732;2022-07-23T07:45:35;98217.59;;;32.80;32.99
36242;BME280;22283;42.748;12.732;2022-07-23T07:50:37;98219.44;;;32.75;32.91
36242;BME280;22283;42.748;12.732;2022-07-23T07:55:38;98218.91;;;32.56;33.11
36242;BME280;22283;42.748;12.732;2022-07-23T08:00:39;98209.44;;;32.86;32.61
36242;BME280;22283;42.748;12.732;2022-07-23T08:05:42;98207.41;;;32.98;32.51
36242;BME280;22283;42.748;12.732;2022-07-23T08:10:43;98208.94;;;32.89;32.28
36242;BME280;22283;42.748;12.732;2022-07-23T08:15:44;98206.78;;;33.13;31.86
36242;BME280;22283;42.748;12.732;2022-07-23T08:20:48;98217.09;;;33.27;31.37
36242;BME280;22283;42.748;12.732;2022-07-23T08:25:48;98206.88;;;33.45;31.45
36242;BME280;22283;42.748;12.732;2022-07-23T08:30:53;98208.44;;;33.36;31.16
36242;BME280;22283;42.748;12.732;2022-07-23T08:35:54;98212.00;;;33.58;30.85
36242;BME280;22283;42.748;12.732;2022-07-23T08:40:56;98209.56;;;33.94;30.45
36242;BME280;22283;42.748;12.732;2022-07-23T08:46:03;98192.81;;;33.90;30.54
36242;BME280;22283;42.748;12.732;2022-07-23T08:51:07;98200.00;;;33.69;30.45
36242;BME280;22283;42.748;12.732;2022-07-23T08:56:11;98195.47;;;34.12;29.80
36242;BME280;22283;42.748;12.732;2022-07-23T09:01:14;98185.09;;;34.19;30.16
36242;BME280;22283;42.748;12.732;2022-07-23T09:06:17;98185.69;;;34.26;29.51
36242;BME280;22283;42.748;12.732;2022-07-23T09:11:24;98178.16;;;34.12;30.05
36242;BME280;22283;42.748;12.732;2022-07-23T09:16:30;98168.63;;;34.24;29.36
36242;BME280;22283;42.748;12.732;2022-07-23T09:21:37;98167.81;;;34.66;29.77
36242;BME280;22283;42.748;12.732;2022-07-23T09:26:48;98164.69;;;35.00;28.37
36242;BME280;22283;42.748;12.732;2022-07-23T09:32:01;98170.19;;;35.00;28.03
36242;BME280;22283;42.748;12.732;2022-07-23T09:37:11;98158.69;;;35.18;27.00
36242;BME280;22283;42.748;12.732;2022-07-23T09:42:22;98159.56;;;35.29;28.08
36242;BME280;22283;42.748;12.732;2022-07-23T09:47:28;98166.41;;;35.16;27.13
36242;BME280;22283;42.748;12.732;2022-07-23T09:52:30;98168.38;;;35.41;27.36
36242;BME280;22283;42.748;12.732;2022-07-23T09:57:34;98153.28;;;35.59;26.28
36242;BME280;22283;42.748;12.732;2022-07-23T10:02:35;98158.28;;;35.72;25.88
36242;BME280;22283;42.748;12.732;2022-07-23T10:07:54;98151.38;;;35.65;25.55
36242;BME280;22283;42.748;12.732;2022-07-23T10:13:30;98144.78;;;35.71;24.54
36242;BME280;22283;42.748;12.732;2022-07-23T10:19:02;98135.69;;;35.70;24.10
36242;BME280;22283;42.748;12.732;2022-07-23T10:34:31;98139.69;;;37.35;20.34
36242;BME280;22283;42.748;12.732;2022-07-23T10:39:39;98129.25;;;37.22;19.90
36242;BME280;22283;42.748;12.732;2022-07-23T10:44:47;98129.38;;;37.01;19.18
36242;BME280;22283;42.748;12.732;2022-07-23T10:49:48;98121.91;;;37.07;18.71
36242;BME280;22283;42.748;12.732;2022-07-23T10:54:56;98117.75;;;37.14;19.42
36242;BME280;22283;42.748;12.732;2022-07-23T11:00:20;98114.28;;;37.33;18.48
36242;BME280;22283;42.748;12.732;2022-07-23T11:05:38;98115.66;;;37.40;18.95
36242;BME280;22283;42.748;12.732;2022-07-23T11:32:00;98077.19;;;37.54;15.46
36242;BME280;22283;42.748;12.732;2022-07-23T11:37:03;98068.66;;;37.80;15.51
36242;BME280;22283;42.748;12.732;2022-07-23T11:42:06;98081.09;;;38.11;15.49
36242;BME280;22283;42.748;12.732;2022-07-23T11:47:10;98071.91;;;37.92;15.72
36242;BME280;22283;42.748;12.732;2022-07-23T11:52:15;98057.34;;;38.10;16.46
36242;BME280;22283;42.748;12.732;2022-07-23T11:57:17;98053.19;;;38.37;16.48
36242;BME280;22283;42.748;12.732;2022-07-23T12:02:19;98049.38;;;38.33;15.40
36242;BME280;22283;42.748;12.732;2022-07-23T12:07:33;98047.38;;;38.38;16.28
36242;BME280;22283;42.748;12.732;2022-07-23T12:12:39;98029.72;;;38.10;15.90
36242;BME280;22283;42.748;12.732;2022-07-23T12:17:43;98036.16;;;38.25;16.05
36242;BME280;22283;42.748;12.732;2022-07-23T12:22:46;98039.59;;;38.17;16.74
36242;BME280;22283;42.748;12.732;2022-07-23T12:28:05;98024.22;;;37.52;16.64
36242;BME280;22283;42.748;12.732;2022-07-23T12:33:09;98032.44;;;37.57;17.77
36242;BME280;22283;42.748;12.732;2022-07-23T12:38:13;98026.31;;;37.95;17.08
36242;BME280;22283;42.748;12.732;2022-07-23T12:48:26;98027.25;;;38.33;17.25
36242;BME280;22283;42.748;12.732;2022-07-23T12:53:33;98016.78;;;38.30;17.34
36242;BME280;22283;42.748;12.732;2022-07-23T12:58:43;98021.31;;;38.21;17.81
36242;BME280;22283;42.748;12.732;2022-07-23T13:09:27;98024.88;;;37.97;18.06
36242;BME280;22283;42.748;12.732;2022-07-23T13:14:28;98010.91;;;38.12;18.02
36242;BME280;22283;42.748;12.732;2022-07-23T13:19:32;98012.34;;;38.34;18.86
36242;BME280;22283;42.748;12.732;2022-07-23T13:24:34;98004.59;;;38.31;19.99
36242;BME280;22283;42.748;12.732;2022-07-23T13:29:35;97998.75;;;37.89;20.20
36242;BME280;22283;42.748;12.732;2022-07-23T13:34:36;97996.09;;;38.03;19.82
36242;BME280;22283;42.748;12.732;2022-07-23T13:39:36;98000.56;;;38.23;19.55
36242;BME280;22283;42.748;12.732;2022-07-23T13:44:37;97991.81;;;38.40;19.77
36242;BME280;22283;42.748;12.732;2022-07-23T13:49:38;97988.38;;;38.67;19.53
36242;BME280;22283;42.748;12.732;2022-07-23T13:54:39;97985.25;;;38.74;19.51
36242;BME280;22283;42.748;12.732;2022-07-23T13:59:42;97986.66;;;38.28;19.84
36242;BME280;22283;42.748;12.732;2022-07-23T14:04:44;97981.16;;;38.28;20.53
36242;BME280;22283;42.748;12.732;2022-07-23T14:09:45;97974.28;;;38.26;20.21
36242;BME280;22283;42.748;12.732;2022-07-23T14:14:46;97969.44;;;38.18;20.25
36242;BME280;22283;42.748;12.732;2022-07-23T14:19:47;97989.13;;;38.35;21.00
36242;BME280;22283;42.748;12.732;2022-07-23T14:24:48;97993.81;;;38.34;21.44
36242;BME280;22283;42.748;12.732;2022-07-23T14:29:49;97989.56;;;38.42;21.55
36242;BME280;22283;42.748;12.732;2022-07-23T14:34:51;97985.69;;;38.43;21.52
36242;BME280;22283;42.748;12.732;2022-07-23T14:39:51;97984.13;;;38.32;21.95
36242;BME280;22283;42.748;12.732;2022-07-23T14:44:53;97970.91;;;38.34;21.84
36242;BME280;22283;42.748;12.732;2022-07-23T14:49:56;97973.34;;;38.35;21.96
36242;BME280;22283;42.748;12.732;2022-07-23T14:54:57;97978.44;;;38.47;22.02
36242;BME280;22283;42.748;12.732;2022-07-23T14:59:58;97975.09;;;38.50;21.76
36242;BME280;22283;42.748;12.732;2022-07-23T15:05:00;97960.81;;;38.43;21.79
36242;BME280;22283;42.748;12.732;2022-07-23T15:10:04;97967.97;;;38.44;21.92
36242;BME280;22283;42.748;12.732;2022-07-23T15:15:07;97966.34;;;38.43;21.94
36242;BME280;22283;42.748;12.732;2022-07-23T15:20:11;97963.06;;;38.41;21.82
36242;BME280;22283;42.748;12.732;2022-07-23T15:25:12;97952.59;;;38.38;22.02
36242;BME280;22283;42.748;12.732;2022-07-23T15:30:13;97954.25;;;38.39;20.55
36242;BME280;22283;42.748;12.732;2022-07-23T15:35:14;97950.88;;;37.99;20.40
36242;BME280;22283;42.748;12.732;2022-07-23T15:40:15;97945.91;;;37.96;20.48
36242;BME280;22283;42.748;12.732;2022-07-23T15:45:19;97957.06;;;37.86;20.37
36242;BME280;22283;42.748;12.732;2022-07-23T15:50:20;97951.41;;;37.72;20.58
36242;BME280;22283;42.748;12.732;2022-07-23T15:55:22;97953.91;;;37.74;20.70
36242;BME280;22283;42.748;12.732;2022-07-23T16:00:23;97968.31;;;37.65;20.87
36242;BME280;22283;42.748;12.732;2022-07-23T16:05:28;97965.84;;;37.64;21.11
36242;BME280;22283;42.748;12.732;2022-07-23T16:10:38;97962.34;;;37.58;20.98
36242;BME280;22283;42.748;12.732;2022-07-23T16:15:39;97955.28;;;37.47;21.55
36242;BME280;22283;42.748;12.732;2022-07-23T16:20:41;97966.94;;;37.34;21.42
36242;BME280;22283;42.748;12.732;2022-07-23T16:25:43;97970.50;;;37.05;21.67
36242;BME280;22283;42.748;12.732;2022-07-23T16:30:47;97959.19;;;36.67;21.22
36242;BME280;22283;42.748;12.732;2022-07-23T16:35:48;97970.66;;;36.30;21.39
36242;BME280;22283;42.748;12.732;2022-07-23T16:40:49;97966.63;;;36.07;21.55
36242;BME280;22283;42.748;12.732;2022-07-23T16:45:50;97971.06;;;35.83;21.66
36242;BME280;22283;42.748;12.732;2022-07-23T16:50:50;97971.34;;;35.86;21.62
36242;BME280;22283;42.748;12.732;2022-07-23T16:55:51;97976.00;;;35.91;21.44
36242;BME280;22283;42.748;12.732;2022-07-23T17:00:52;97974.91;;;36.02;21.58
36242;BME280;22283;42.748;12.732;2022-07-23T17:05:54;97983.47;;;36.01;21.90
36242;BME280;22283;42.748;12.732;2022-07-23T17:10:56;97968.88;;;35.85;22.11
36242;BME280;22283;42.748;12.732;2022-07-23T17:15:57;97972.75;;;35.79;22.60
36242;BME280;22283;42.748;12.732;2022-07-23T17:20:58;97993.16;;;35.62;23.43
36242;BME280;22283;42.748;12.732;2022-07-23T17:25:58;97993.72;;;35.49;23.77
36242;BME280;22283;42.748;12.732;2022-07-23T17:31:02;97989.03;;;35.34;23.49
36242;BME280;22283;42.748;12.732;2022-07-23T17:36:07;97997.28;;;35.14;24.02
36242;BME280;22283;42.748;12.732;2022-07-23T17:41:08;98003.56;;;34.94;24.35
36242;BME280;22283;42.748;12.732;2022-07-23T17:46:09;98003.53;;;34.84;24.90
36242;BME280;22283;42.748;12.732;2022-07-23T17:51:10;98018.34;;;34.62;25.19
36242;BME280;22283;42.748;12.732;2022-07-23T17:56:11;98018.25;;;34.47;25.44
36242;BME280;22283;42.748;12.732;2022-07-23T18:01:12;98021.78;;;34.32;25.90
36242;BME280;22283;42.748;12.732;2022-07-23T18:06:13;98029.63;;;34.08;25.44
36242;BME280;22283;42.748;12.732;2022-07-23T18:11:15;98020.97;;;33.89;25.75
36242;BME280;22283;42.748;12.732;2022-07-23T18:16:16;98031.59;;;33.70;26.28
36242;BME280;22283;42.748;12.732;2022-07-23T18:21:19;98040.22;;;33.52;26.92
36242;BME280;22283;42.748;12.732;2022-07-23T18:26:21;98047.16;;;33.33;26.92
36242;BME280;22283;42.748;12.732;2022-07-23T18:31:25;98054.06;;;33.08;27.84
36242;BME280;22283;42.748;12.732;2022-07-23T18:36:26;98060.66;;;32.85;28.07
36242;BME280;22283;42.748;12.732;2022-07-23T18:41:28;98065.59;;;32.61;28.19
36242;BME280;22283;42.748;12.732;2022-07-23T18:46:28;98071.28;;;32.38;28.23
36242;BME280;22283;42.748;12.732;2022-07-23T18:51:31;98072.66;;;32.18;28.20
36242;BME280;22283;42.748;12.732;2022-07-23T18:56:32;98076.16;;;31.92;28.18
36242;BME280;22283;42.748;12.732;2022-07-23T19:01:35;98084.09;;;31.76;28.14
36242;BME280;22283;42.748;12.732;2022-07-23T19:06:39;98090.47;;;31.65;28.16
36242;BME280;22283;42.748;12.732;2022-07-23T19:11:40;98099.09;;;31.57;28.03
36242;BME280;22283;42.748;12.732;2022-07-23T19:16:41;98110.69;;;31.47;28.36
36242;BME280;22283;42.748;12.732;2022-07-23T19:21:42;98115.31;;;31.30;28.98
36242;BME280;22283;42.748;12.732;2022-07-23T19:26:43;98125.06;;;30.97;29.60
36242;BME280;22283;42.748;12.732;2022-07-23T19:31:49;98134.72;;;30.65;30.37
36242;BME280;22283;42.748;12.732;2022-07-23T19:36:50;98136.56;;;30.35;31.51
36242;BME280;22283;42.748;12.732;2022-07-23T19:41:52;98134.06;;;30.10;31.95
36242;BME280;22283;42.748;12.732;2022-07-23T19:46:53;98144.50;;;29.90;32.49
36242;BME280;22283;42.748;12.732;2022-07-23T19:51:54;98142.69;;;29.72;32.77
36242;BME280;22283;42.748;12.732;2022-07-23T19:56:54;98152.00;;;29.53;33.22
36242;BME280;22283;42.748;12.732;2022-07-23T20:01:56;98162.03;;;29.40;33.22
36242;BME280;22283;42.748;12.732;2022-07-23T20:06:57;98173.41;;;29.37;33.43
36242;BME280;22283;42.748;12.732;2022-07-23T20:11:59;98171.00;;;29.29;33.53
36242;BME280;22283;42.748;12.732;2022-07-23T20:17:06;98169.88;;;29.07;34.30
36242;BME280;22283;42.748;12.732;2022-07-23T20:22:07;98170.03;;;28.75;34.72
36242;BME280;22283;42.748;12.732;2022-07-23T20:27:08;98164.44;;;28.52;35.32
36242;BME280;22283;42.748;12.732;2022-07-23T20:32:09;98167.91;;;28.40;35.10
36242;BME280;22283;42.748;12.732;2022-07-23T20:37:10;98174.63;;;28.38;35.18
36242;BME280;22283;42.748;12.732;2022-07-23T20:42:11;98179.63;;;28.34;35.54
36242;BME280;22283;42.748;12.732;2022-07-23T20:47:12;98175.16;;;28.22;35.37
36242;BME280;22283;42.748;12.732;2022-07-23T20:52:14;98180.66;;;28.15;35.24
36242;BME280;22283;42.748;12.732;2022-07-23T20:57:15;98186.97;;;28.15;35.07
36242;BME280;22283;42.748;12.732;2022-07-23T21:02:18;98191.53;;;28.15;35.65
36242;BME280;22283;42.748;12.732;2022-07-23T21:07:19;98195.47;;;28.01;35.91
36242;BME280;22283;42.748;12.732;2022-07-23T21:12:23;98195.00;;;27.79;36.45
36242;BME280;22283;42.748;12.732;2022-07-23T21:17:27;98197.38;;;27.62;36.79
36242;BME280;22283;42.748;12.732;2022-07-23T21:22:27;98203.13;;;27.47;37.17
36242;BME280;22283;42.748;12.732;2022-07-23T21:27:31;98212.38;;;27.39;37.42
36242;BME280;22283;42.748;12.732;2022-07-23T21:32:32;98214.31;;;27.32;37.18
36242;BME280;22283;42.748;12.732;2022-07-23T21:37:34;98222.25;;;27.27;37.31
36242;BME280;22283;42.748;12.732;2022-07-23T21:42:34;98220.81;;;27.25;37.69
36242;BME280;22283;42.748;12.732;2022-07-23T21:47:35;98221.94;;;27.10;38.34
36242;BME280;22283;42.748;12.732;2022-07-23T21:52:37;98216.13;;;26.93;38.68
36242;BME280;22283;42.748;12.732;2022-07-23T21:57:39;98217.00;;;26.81;38.67
36242;BME280;22283;42.748;12.732;2022-07-23T22:02:46;98209.66;;;26.88;38.73
36242;BME280;22283;42.748;12.732;2022-07-23T22:07:48;98210.03;;;26.98;38.41
36242;BME280;22283;42.748;12.732;2022-07-23T22:12:50;98213.19;;;26.88;38.84
36242;BME280;22283;42.748;12.732;2022-07-23T22:17:51;98213.91;;;26.64;39.62
36242;BME280;22283;42.748;12.732;2022-07-23T22:22:52;98216.47;;;26.45;40.03
36242;BME280;22283;42.748;12.732;2022-07-23T22:27:56;98217.31;;;26.26;40.52
36242;BME280;22283;42.748;12.732;2022-07-23T22:32:58;98218.78;;;26.15;40.88
36242;BME280;22283;42.748;12.732;2022-07-23T22:38:00;98224.63;;;25.99;40.94
36242;BME280;22283;42.748;12.732;2022-07-23T22:43:02;98215.88;;;25.90;41.59
36242;BME280;22283;42.748;12.732;2022-07-23T22:48:05;98230.88;;;25.86;41.56
36242;BME280;22283;42.748;12.732;2022-07-23T22:53:08;98230.88;;;25.86;41.59
36242;BME280;22283;42.748;12.732;2022-07-23T22:58:08;98237.31;;;25.79;41.64
36242;BME280;22283;42.748;12.732;2022-07-23T23:03:10;98242.69;;;25.72;41.95
36242;BME280;22283;42.748;12.732;2022-07-23T23:08:12;98229.56;;;25.69;41.67
36242;BME280;22283;42.748;12.732;2022-07-23T23:13:14;98243.91;;;25.56;42.02
36242;BME280;22283;42.748;12.732;2022-07-23T23:18:16;98232.03;;;25.50;42.34
36242;BME280;22283;42.748;12.732;2022-07-23T23:23:20;98226.16;;;25.40;42.34
36242;BME280;22283;42.748;12.732;2022-07-23T23:28:24;98238.66;;;25.41;42.30
36242;BME280;22283;42.748;12.732;2022-07-23T23:33:28;98237.84;;;25.34;42.50
36242;BME280;22283;42.748;12.732;2022-07-23T23:38:29;98232.81;;;25.31;42.49
36242;BME280;22283;42.748;12.732;2022-07-23T23:43:31;98225.28;;;25.20;42.63
36242;BME280;22283;42.748;12.732;2022-07-23T23:48:39;98224.81;;;25.10;42.88
36242;BME280;22283;42.748;12.732;2022-07-23T23:53:44;98216.88;;;25.08;42.92
36242;BME280;22283;42.748;12.732;2022-07-23T23:58:46;98222.06;;;25.03;42.78
